sensor_id;sensor_type;location;lat;lon;timestamp;temperature;humidity
37158;DHT22;23050;51.776;22.638;2023-05-07T00:01:49;4.70;99.90
37158;DHT22;23050;51.776;22.638;2023-05-07T00:04:14;4.70;99.90
37158;DHT22;23050;51.776;22.638;2023-05-07T00:06:40;4.70;99.90
37158;DHT22;23050;51.776;22.638;2023-05-07T00:09:06;4.70;99.90
37158;DHT22;23050;51.776;22.638;2023-05-07T00:11:31;4.60;99.90
37158;DHT22;23050;51.776;22.638;2023-05-07T00:13:57;4.70;99.90
37158;DHT22;23050;51.776;22.638;2023-05-07T00:16:22;4.70;99.90
37158;DHT22;23050;51.776;22.638;2023-05-07T00:18:48;4.70;99.90
37158;DHT22;23050;51.776;22.638;2023-05-07T00:21:13;4.70;99.90
37158;DHT22;23050;51.776;22.638;2023-05-07T00:23:39;4.70;99.90
37158;DHT22;23050;51.776;22.638;2023-05-07T00:26:04;4.70;99.90
37158;DHT22;23050;51.776;22.638;2023-05-07T00:28:30;4.70;99.90
37158;DHT22;23050;51.776;22.638;2023-05-07T00:30:55;4.70;99.90
37158;DHT22;23050;51.776;22.638;2023-05-07T00:33:21;4.70;99.90
37158;DHT22;23050;51.776;22.638;2023-05-07T00:35:47;4.70;99.90
37158;DHT22;23050;51.776;22.638;2023-05-07T00:38:13;4.70;99.90
37158;DHT22;23050;51.776;22.638;2023-05-07T00:40:38;4.70;99.90
37158;DHT22;23050;51.776;22.638;2023-05-07T00:43:03;4.70;99.90
37158;DHT22;23050;51.776;22.638;2023-05-07T00:45:29;4.70;99.90
37158;DHT22;23050;51.776;22.638;2023-05-07T00:47:55;4.70;99.90
37158;DHT22;23050;51.776;22.638;2023-05-07T00:50:21;4.70;99.90
37158;DHT22;23050;51.776;22.638;2023-05-07T00:52:47;4.70;99.90
37158;DHT22;23050;51.776;22.638;2023-05-07T00:55:13;4.70;99.90
37158;DHT22;23050;51.776;22.638;2023-05-07T00:57:40;4.70;99.90
37158;DHT22;23050;51.776;22.638;2023-05-07T01:00:06;4.80;99.90
37158;DHT22;23050;51.776;22.638;2023-05-07T01:02:34;4.80;99.90
37158;DHT22;23050;51.776;22.638;2023-05-07T01:05:00;4.70;99.90
37158;DHT22;23050;51.776;22.638;2023-05-07T01:07:25;4.80;99.90
37158;DHT22;23050;51.776;22.638;2023-05-07T01:09:51;4.80;99.90
37158;DHT22;23050;51.776;22.638;2023-05-07T01:12:17;4.80;99.90
37158;DHT22;23050;51.776;22.638;2023-05-07T01:14:42;4.80;99.90
37158;DHT22;23050;51.776;22.638;2023-05-07T01:17:08;4.70;99.90
37158;DHT22;23050;51.776;22.638;2023-05-07T01:19:33;4.80;99.90
37158;DHT22;23050;51.776;22.638;2023-05-07T01:22:01;4.80;99.90
37158;DHT22;23050;51.776;22.638;2023-05-07T01:24:27;4.80;99.90
37158;DHT22;23050;51.776;22.638;2023-05-07T01:26:53;4.80;99.90
37158;DHT22;23050;51.776;22.638;2023-05-07T01:29:18;4.80;99.90
37158;DHT22;23050;51.776;22.638;2023-05-07T01:31:43;4.90;99.90
37158;DHT22;23050;51.776;22.638;2023-05-07T01:34:09;4.80;99.90
37158;DHT22;23050;51.776;22.638;2023-05-07T01:36:36;4.80;99.90
37158;DHT22;23050;51.776;22.638;2023-05-07T01:39:03;4.80;99.90
37158;DHT22;23050;51.776;22.638;2023-05-07T01:41:30;4.80;99.90
37158;DHT22;23050;51.776;22.638;2023-05-07T01:43:56;4.80;99.90
37158;DHT22;23050;51.776;22.638;2023-05-07T01:46:23;4.80;99.90
37158;DHT22;23050;51.776;22.638;2023-05-07T01:48:49;4.80;99.90
37158;DHT22;23050;51.776;22.638;2023-05-07T01:51:15;4.80;99.90
37158;DHT22;23050;51.776;22.638;2023-05-07T01:53:41;4.80;99.90
37158;DHT22;23050;51.776;22.638;2023-05-07T01:56:07;4.80;99.90
37158;DHT22;23050;51.776;22.638;2023-05-07T01:58:32;4.80;99.90
37158;DHT22;23050;51.776;22.638;2023-05-07T02:00:58;4.90;99.90
37158;DHT22;23050;51.776;22.638;2023-05-07T02:03:23;4.80;99.90
37158;DHT22;23050;51.776;22.638;2023-05-07T02:05:49;4.90;99.90
37158;DHT22;23050;51.776;22.638;2023-05-07T02:08:14;4.90;99.90
37158;DHT22;23050;51.776;22.638;2023-05-07T02:10:40;4.90;99.90
37158;DHT22;23050;51.776;22.638;2023-05-07T02:13:05;4.90;99.90
37158;DHT22;23050;51.776;22.638;2023-05-07T02:15:31;4.90;99.90
37158;DHT22;23050;51.776;22.638;2023-05-07T02:18:02;4.90;99.90
37158;DHT22;23050;51.776;22.638;2023-05-07T02:20:27;4.90;99.90
37158;DHT22;23050;51.776;22.638;2023-05-07T02:22:53;4.90;99.90
37158;DHT22;23050;51.776;22.638;2023-05-07T02:25:18;4.90;99.90
37158;DHT22;23050;51.776;22.638;2023-05-07T02:27:44;4.90;99.90
37158;DHT22;23050;51.776;22.638;2023-05-07T02:30:10;4.90;99.90
37158;DHT22;23050;51.776;22.638;2023-05-07T02:32:35;4.90;99.90
37158;DHT22;23050;51.776;22.638;2023-05-07T02:35:01;5.00;99.90
37158;DHT22;23050;51.776;22.638;2023-05-07T02:37:26;5.00;99.90
37158;DHT22;23050;51.776;22.638;2023-05-07T02:39:51;4.90;99.90
37158;DHT22;23050;51.776;22.638;2023-05-07T02:42:17;5.00;99.90
37158;DHT22;23050;51.776;22.638;2023-05-07T02:44:43;5.00;99.90
37158;DHT22;23050;51.776;22.638;2023-05-07T02:47:08;5.00;99.90
37158;DHT22;23050;51.776;22.638;2023-05-07T02:49:34;5.00;99.90
37158;DHT22;23050;51.776;22.638;2023-05-07T02:52:00;5.00;99.90
37158;DHT22;23050;51.776;22.638;2023-05-07T02:54:25;5.00;99.90
37158;DHT22;23050;51.776;22.638;2023-05-07T02:56:51;5.00;99.90
37158;DHT22;23050;51.776;22.638;2023-05-07T02:59:16;5.00;99.90
37158;DHT22;23050;51.776;22.638;2023-05-07T03:01:42;5.00;99.90
37158;DHT22;23050;51.776;22.638;2023-05-07T03:04:09;5.00;99.90
37158;DHT22;23050;51.776;22.638;2023-05-07T03:06:35;5.00;99.90
37158;DHT22;23050;51.776;22.638;2023-05-07T03:09:00;5.00;99.90
37158;DHT22;23050;51.776;22.638;2023-05-07T03:11:25;5.00;99.90
37158;DHT22;23050;51.776;22.638;2023-05-07T03:13:51;5.00;99.90
37158;DHT22;23050;51.776;22.638;2023-05-07T03:16:16;5.00;99.90
37158;DHT22;23050;51.776;22.638;2023-05-07T03:18:42;5.00;99.90
37158;DHT22;23050;51.776;22.638;2023-05-07T03:21:07;5.00;99.90
37158;DHT22;23050;51.776;22.638;2023-05-07T03:23:33;5.10;99.90
37158;DHT22;23050;51.776;22.638;2023-05-07T03:25:58;5.00;99.90
37158;DHT22;23050;51.776;22.638;2023-05-07T03:28:24;5.00;99.90
37158;DHT22;23050;51.776;22.638;2023-05-07T03:30:49;5.00;99.90
37158;DHT22;23050;51.776;22.638;2023-05-07T03:33:15;5.00;99.90
37158;DHT22;23050;51.776;22.638;2023-05-07T03:35:40;5.00;99.90
37158;DHT22;23050;51.776;22.638;2023-05-07T03:38:07;5.10;99.90
37158;DHT22;23050;51.776;22.638;2023-05-07T03:40:32;5.10;99.90
37158;DHT22;23050;51.776;22.638;2023-05-07T03:42:59;5.00;99.90
37158;DHT22;23050;51.776;22.638;2023-05-07T03:45:25;5.00;99.90
37158;DHT22;23050;51.776;22.638;2023-05-07T03:47:51;5.00;99.90
37158;DHT22;23050;51.776;22.638;2023-05-07T03:50:16;5.00;99.90
37158;DHT22;23050;51.776;22.638;2023-05-07T03:52:41;5.00;99.90
37158;DHT22;23050;51.776;22.638;2023-05-07T03:55:07;5.00;99.90
37158;DHT22;23050;51.776;22.638;2023-05-07T03:57:33;5.00;99.90
37158;DHT22;23050;51.776;22.638;2023-05-07T03:59:58;5.00;99.90
37158;DHT22;23050;51.776;22.638;2023-05-07T04:02:24;5.00;99.90
37158;DHT22;23050;51.776;22.638;2023-05-07T04:04:49;5.00;99.90
37158;DHT22;23050;51.776;22.638;2023-05-07T04:07:15;5.00;99.90
37158;DHT22;23050;51.776;22.638;2023-05-07T04:09:40;5.00;99.90
37158;DHT22;23050;51.776;22.638;2023-05-07T04:12:06;5.00;99.90
37158;DHT22;23050;51.776;22.638;2023-05-07T04:14:31;5.00;99.90
37158;DHT22;23050;51.776;22.638;2023-05-07T04:17:00;5.00;99.90
37158;DHT22;23050;51.776;22.638;2023-05-07T04:19:25;5.00;99.90
37158;DHT22;23050;51.776;22.638;2023-05-07T04:21:51;5.00;99.90
37158;DHT22;23050;51.776;22.638;2023-05-07T04:24:16;5.00;99.90
37158;DHT22;23050;51.776;22.638;2023-05-07T04:26:42;5.00;99.90
37158;DHT22;23050;51.776;22.638;2023-05-07T04:29:07;5.00;99.90
37158;DHT22;23050;51.776;22.638;2023-05-07T04:31:33;5.00;99.90
37158;DHT22;23050;51.776;22.638;2023-05-07T04:33:58;5.00;99.90
37158;DHT22;23050;51.776;22.638;2023-05-07T04:36:24;5.10;99.90
37158;DHT22;23050;51.776;22.638;2023-05-07T04:38:53;5.10;99.90
37158;DHT22;23050;51.776;22.638;2023-05-07T04:41:18;5.10;99.90
37158;DHT22;23050;51.776;22.638;2023-05-07T04:43:44;5.10;99.90
37158;DHT22;23050;51.776;22.638;2023-05-07T04:46:09;5.10;99.90
37158;DHT22;23050;51.776;22.638;2023-05-07T04:48:35;5.10;99.90
37158;DHT22;23050;51.776;22.638;2023-05-07T04:51:00;5.10;99.90
37158;DHT22;23050;51.776;22.638;2023-05-07T04:53:26;5.10;99.90
37158;DHT22;23050;51.776;22.638;2023-05-07T04:55:55;5.10;99.90
37158;DHT22;23050;51.776;22.638;2023-05-07T04:58:21;5.10;99.90
37158;DHT22;23050;51.776;22.638;2023-05-07T05:00:46;5.10;99.90
37158;DHT22;23050;51.776;22.638;2023-05-07T05:03:12;5.10;99.90
37158;DHT22;23050;51.776;22.638;2023-05-07T05:05:37;5.20;99.90
37158;DHT22;23050;51.776;22.638;2023-05-07T05:08:03;5.10;99.90
37158;DHT22;23050;51.776;22.638;2023-05-07T05:10:28;5.10;99.90
37158;DHT22;23050;51.776;22.638;2023-05-07T05:12:54;5.20;99.90
37158;DHT22;23050;51.776;22.638;2023-05-07T05:15:19;5.10;99.90
37158;DHT22;23050;51.776;22.638;2023-05-07T05:17:45;5.20;99.90
37158;DHT22;23050;51.776;22.638;2023-05-07T05:20:10;5.30;99.90
37158;DHT22;23050;51.776;22.638;2023-05-07T05:22:37;5.20;99.90
37158;DHT22;23050;51.776;22.638;2023-05-07T05:25:02;5.30;99.90
37158;DHT22;23050;51.776;22.638;2023-05-07T05:27:28;5.30;99.90
37158;DHT22;23050;51.776;22.638;2023-05-07T05:29:53;5.40;99.90
37158;DHT22;23050;51.776;22.638;2023-05-07T05:32:19;5.40;99.90
37158;DHT22;23050;51.776;22.638;2023-05-07T05:34:44;5.50;99.90
37158;DHT22;23050;51.776;22.638;2023-05-07T05:37:10;5.50;99.90
37158;DHT22;23050;51.776;22.638;2023-05-07T05:39:36;5.50;99.90
37158;DHT22;23050;51.776;22.638;2023-05-07T05:42:01;5.50;99.90
37158;DHT22;23050;51.776;22.638;2023-05-07T05:44:27;5.50;99.90
37158;DHT22;23050;51.776;22.638;2023-05-07T05:46:52;5.50;99.90
37158;DHT22;23050;51.776;22.638;2023-05-07T05:49:20;5.50;99.90
37158;DHT22;23050;51.776;22.638;2023-05-07T05:51:46;5.50;99.90
37158;DHT22;23050;51.776;22.638;2023-05-07T05:54:11;5.50;99.90
37158;DHT22;23050;51.776;22.638;2023-05-07T05:56:37;5.40;99.90
37158;DHT22;23050;51.776;22.638;2023-05-07T05:59:02;5.40;99.90
37158;DHT22;23050;51.776;22.638;2023-05-07T06:01:28;5.30;99.90
37158;DHT22;23050;51.776;22.638;2023-05-07T06:03:53;5.30;99.90
37158;DHT22;23050;51.776;22.638;2023-05-07T06:06:19;5.40;99.90
37158;DHT22;23050;51.776;22.638;2023-05-07T06:08:44;5.40;99.90
37158;DHT22;23050;51.776;22.638;2023-05-07T06:11:10;5.40;99.90
37158;DHT22;23050;51.776;22.638;2023-05-07T06:13:35;5.40;99.90
37158;DHT22;23050;51.776;22.638;2023-05-07T06:16:01;5.30;99.90
37158;DHT22;23050;51.776;22.638;2023-05-07T06:18:26;5.40;99.90
37158;DHT22;23050;51.776;22.638;2023-05-07T06:20:52;5.40;99.90
37158;DHT22;23050;51.776;22.638;2023-05-07T06:23:17;5.40;99.90
37158;DHT22;23050;51.776;22.638;2023-05-07T06:25:47;5.50;99.90
37158;DHT22;23050;51.776;22.638;2023-05-07T06:28:13;5.40;99.90
37158;DHT22;23050;51.776;22.638;2023-05-07T06:30:38;5.40;99.90
37158;DHT22;23050;51.776;22.638;2023-05-07T06:33:05;5.50;99.90
37158;DHT22;23050;51.776;22.638;2023-05-07T06:35:30;5.50;99.90
37158;DHT22;23050;51.776;22.638;2023-05-07T06:37:56;5.50;99.90
37158;DHT22;23050;51.776;22.638;2023-05-07T06:40:21;5.50;99.90
37158;DHT22;23050;51.776;22.638;2023-05-07T06:42:47;5.70;99.90
37158;DHT22;23050;51.776;22.638;2023-05-07T06:45:12;5.60;99.90
37158;DHT22;23050;51.776;22.638;2023-05-07T06:47:38;5.50;99.90
37158;DHT22;23050;51.776;22.638;2023-05-07T06:50:03;5.50;99.90
37158;DHT22;23050;51.776;22.638;2023-05-07T06:52:29;5.60;99.90
37158;DHT22;23050;51.776;22.638;2023-05-07T06:54:54;5.60;99.90
37158;DHT22;23050;51.776;22.638;2023-05-07T06:57:20;5.50;99.90
37158;DHT22;23050;51.776;22.638;2023-05-07T06:59:45;5.60;99.90
37158;DHT22;23050;51.776;22.638;2023-05-07T07:02:11;5.60;99.90
37158;DHT22;23050;51.776;22.638;2023-05-07T07:04:36;5.70;99.90
37158;DHT22;23050;51.776;22.638;2023-05-07T07:07:02;5.70;99.90
37158;DHT22;23050;51.776;22.638;2023-05-07T07:09:27;5.80;99.90
37158;DHT22;23050;51.776;22.638;2023-05-07T07:11:52;5.70;99.90
37158;DHT22;23050;51.776;22.638;2023-05-07T07:14:18;5.80;99.90
37158;DHT22;23050;51.776;22.638;2023-05-07T07:16:43;5.80;99.90
37158;DHT22;23050;51.776;22.638;2023-05-07T07:19:09;5.80;99.90
37158;DHT22;23050;51.776;22.638;2023-05-07T07:21:34;5.90;99.90
37158;DHT22;23050;51.776;22.638;2023-05-07T07:24:00;6.00;99.90
37158;DHT22;23050;51.776;22.638;2023-05-07T07:26:25;5.90;99.90
37158;DHT22;23050;51.776;22.638;2023-05-07T07:28:51;5.90;99.90
37158;DHT22;23050;51.776;22.638;2023-05-07T07:31:17;6.00;99.90
37158;DHT22;23050;51.776;22.638;2023-05-07T07:33:43;6.00;99.90
37158;DHT22;23050;51.776;22.638;2023-05-07T07:36:09;6.00;99.90
37158;DHT22;23050;51.776;22.638;2023-05-07T07:38:34;6.00;99.90
37158;DHT22;23050;51.776;22.638;2023-05-07T07:41:00;6.00;99.90
37158;DHT22;23050;51.776;22.638;2023-05-07T07:43:26;6.00;99.90
37158;DHT22;23050;51.776;22.638;2023-05-07T07:45:51;6.00;99.90
37158;DHT22;23050;51.776;22.638;2023-05-07T07:48:17;6.00;99.90
37158;DHT22;23050;51.776;22.638;2023-05-07T07:50:42;6.10;99.90
37158;DHT22;23050;51.776;22.638;2023-05-07T07:53:08;6.10;99.90
37158;DHT22;23050;51.776;22.638;2023-05-07T07:55:37;6.10;99.90
37158;DHT22;23050;51.776;22.638;2023-05-07T07:58:03;6.20;99.90
37158;DHT22;23050;51.776;22.638;2023-05-07T08:00:28;6.20;99.90
37158;DHT22;23050;51.776;22.638;2023-05-07T08:02:53;6.30;99.90
37158;DHT22;23050;51.776;22.638;2023-05-07T08:05:19;6.30;99.90
37158;DHT22;23050;51.776;22.638;2023-05-07T08:07:45;6.30;99.90
37158;DHT22;23050;51.776;22.638;2023-05-07T08:10:14;6.40;99.90
37158;DHT22;23050;51.776;22.638;2023-05-07T08:12:47;6.60;99.90
37158;DHT22;23050;51.776;22.638;2023-05-07T08:15:12;6.60;99.90
37158;DHT22;23050;51.776;22.638;2023-05-07T08:17:38;6.80;99.90
37158;DHT22;23050;51.776;22.638;2023-05-07T08:20:04;6.80;99.90
37158;DHT22;23050;51.776;22.638;2023-05-07T08:22:29;7.00;99.90
37158;DHT22;23050;51.776;22.638;2023-05-07T08:24:55;6.90;99.90
37158;DHT22;23050;51.776;22.638;2023-05-07T08:27:20;6.90;99.90
37158;DHT22;23050;51.776;22.638;2023-05-07T08:29:46;6.80;99.90
37158;DHT22;23050;51.776;22.638;2023-05-07T08:32:13;6.80;99.90
37158;DHT22;23050;51.776;22.638;2023-05-07T08:34:38;6.80;99.90
37158;DHT22;23050;51.776;22.638;2023-05-07T08:37:04;6.80;99.90
37158;DHT22;23050;51.776;22.638;2023-05-07T08:39:29;6.80;99.90
37158;DHT22;23050;51.776;22.638;2023-05-07T08:41:55;6.80;99.90
37158;DHT22;23050;51.776;22.638;2023-05-07T08:44:22;6.90;99.90
37158;DHT22;23050;51.776;22.638;2023-05-07T08:46:48;6.90;99.90
37158;DHT22;23050;51.776;22.638;2023-05-07T08:49:16;7.00;99.90
37158;DHT22;23050;51.776;22.638;2023-05-07T08:51:42;7.10;99.90
37158;DHT22;23050;51.776;22.638;2023-05-07T08:54:07;7.10;99.90
37158;DHT22;23050;51.776;22.638;2023-05-07T08:56:34;7.00;99.90
37158;DHT22;23050;51.776;22.638;2023-05-07T08:58:59;7.00;99.90
37158;DHT22;23050;51.776;22.638;2023-05-07T09:01:25;7.00;99.90
37158;DHT22;23050;51.776;22.638;2023-05-07T09:03:51;7.10;99.90
37158;DHT22;23050;51.776;22.638;2023-05-07T09:06:17;7.10;99.90
37158;DHT22;23050;51.776;22.638;2023-05-07T09:08:48;6.90;99.90
37158;DHT22;23050;51.776;22.638;2023-05-07T09:11:13;7.00;99.90
37158;DHT22;23050;51.776;22.638;2023-05-07T09:13:39;7.10;99.90
37158;DHT22;23050;51.776;22.638;2023-05-07T09:16:11;7.20;99.90
37158;DHT22;23050;51.776;22.638;2023-05-07T09:18:41;7.30;99.90
37158;DHT22;23050;51.776;22.638;2023-05-07T09:21:09;7.50;99.90
37158;DHT22;23050;51.776;22.638;2023-05-07T09:23:35;7.70;99.90
37158;DHT22;23050;51.776;22.638;2023-05-07T09:26:00;7.60;99.90
37158;DHT22;23050;51.776;22.638;2023-05-07T09:28:26;7.50;99.90
37158;DHT22;23050;51.776;22.638;2023-05-07T09:30:52;7.40;99.90
37158;DHT22;23050;51.776;22.638;2023-05-07T09:33:17;7.50;99.90
37158;DHT22;23050;51.776;22.638;2023-05-07T09:35:43;7.40;99.90
37158;DHT22;23050;51.776;22.638;2023-05-07T09:38:08;7.40;99.90
37158;DHT22;23050;51.776;22.638;2023-05-07T09:40:34;7.40;99.90
37158;DHT22;23050;51.776;22.638;2023-05-07T09:43:12;7.30;99.90
37158;DHT22;23050;51.776;22.638;2023-05-07T09:45:38;7.40;99.90
37158;DHT22;23050;51.776;22.638;2023-05-07T09:48:04;7.40;99.90
37158;DHT22;23050;51.776;22.638;2023-05-07T09:50:32;7.50;99.90
37158;DHT22;23050;51.776;22.638;2023-05-07T09:53:01;7.50;99.90
37158;DHT22;23050;51.776;22.638;2023-05-07T09:55:28;7.50;99.90
37158;DHT22;23050;51.776;22.638;2023-05-07T09:57:54;7.70;99.90
37158;DHT22;23050;51.776;22.638;2023-05-07T10:00:21;7.70;99.90
37158;DHT22;23050;51.776;22.638;2023-05-07T10:02:50;7.90;99.90
37158;DHT22;23050;51.776;22.638;2023-05-07T10:05:21;7.90;99.90
37158;DHT22;23050;51.776;22.638;2023-05-07T10:07:46;8.00;99.90
37158;DHT22;23050;51.776;22.638;2023-05-07T10:10:12;8.20;99.90
37158;DHT22;23050;51.776;22.638;2023-05-07T10:12:40;8.20;99.90
37158;DHT22;23050;51.776;22.638;2023-05-07T10:15:09;8.20;99.90
37158;DHT22;23050;51.776;22.638;2023-05-07T10:17:36;8.20;99.90
37158;DHT22;23050;51.776;22.638;2023-05-07T10:20:01;8.10;99.90
37158;DHT22;23050;51.776;22.638;2023-05-07T10:22:28;8.10;99.90
37158;DHT22;23050;51.776;22.638;2023-05-07T10:24:57;8.30;99.90
37158;DHT22;23050;51.776;22.638;2023-05-07T10:27:24;8.30;99.90
37158;DHT22;23050;51.776;22.638;2023-05-07T10:29:54;8.30;99.90
37158;DHT22;23050;51.776;22.638;2023-05-07T10:34:50;8.30;99.90
37158;DHT22;23050;51.776;22.638;2023-05-07T10:37:18;8.20;99.90
37158;DHT22;23050;51.776;22.638;2023-05-07T10:39:43;8.20;99.90
37158;DHT22;23050;51.776;22.638;2023-05-07T10:42:09;8.20;99.90
37158;DHT22;23050;51.776;22.638;2023-05-07T10:44:35;8.20;99.90
37158;DHT22;23050;51.776;22.638;2023-05-07T10:47:06;8.30;99.90
37158;DHT22;23050;51.776;22.638;2023-05-07T10:49:34;8.30;99.90
37158;DHT22;23050;51.776;22.638;2023-05-07T10:52:12;8.40;99.90
37158;DHT22;23050;51.776;22.638;2023-05-07T10:54:41;8.50;99.90
37158;DHT22;23050;51.776;22.638;2023-05-07T10:59:51;8.30;99.90
37158;DHT22;23050;51.776;22.638;2023-05-07T11:02:17;8.30;99.90
37158;DHT22;23050;51.776;22.638;2023-05-07T11:04:42;8.30;99.90
37158;DHT22;23050;51.776;22.638;2023-05-07T11:10:16;8.20;99.90
37158;DHT22;23050;51.776;22.638;2023-05-07T11:15:04;8.30;99.90
37158;DHT22;23050;51.776;22.638;2023-05-07T11:17:30;8.20;99.90
37158;DHT22;23050;51.776;22.638;2023-05-07T11:19:57;8.00;99.90
37158;DHT22;23050;51.776;22.638;2023-05-07T11:25:04;8.10;99.90
37158;DHT22;23050;51.776;22.638;2023-05-07T11:27:31;8.10;99.90
37158;DHT22;23050;51.776;22.638;2023-05-07T11:29:56;8.20;99.90
37158;DHT22;23050;51.776;22.638;2023-05-07T11:32:22;8.10;99.90
37158;DHT22;23050;51.776;22.638;2023-05-07T11:34:51;8.10;99.90
37158;DHT22;23050;51.776;22.638;2023-05-07T11:37:17;8.10;99.90
37158;DHT22;23050;51.776;22.638;2023-05-07T11:39:42;8.00;99.90
37158;DHT22;23050;51.776;22.638;2023-05-07T11:42:24;8.10;99.90
37158;DHT22;23050;51.776;22.638;2023-05-07T11:44:50;8.10;99.90
37158;DHT22;23050;51.776;22.638;2023-05-07T11:47:19;8.30;99.90
37158;DHT22;23050;51.776;22.638;2023-05-07T11:49:48;8.40;99.90
37158;DHT22;23050;51.776;22.638;2023-05-07T11:52:14;8.60;99.90
37158;DHT22;23050;51.776;22.638;2023-05-07T11:54:40;8.60;99.90
37158;DHT22;23050;51.776;22.638;2023-05-07T11:57:05;8.50;99.90
37158;DHT22;23050;51.776;22.638;2023-05-07T11:59:41;8.30;99.90
37158;DHT22;23050;51.776;22.638;2023-05-07T12:02:09;8.20;99.90
37158;DHT22;23050;51.776;22.638;2023-05-07T12:04:35;8.10;99.90
37158;DHT22;23050;51.776;22.638;2023-05-07T12:07:00;7.90;99.90
37158;DHT22;23050;51.776;22.638;2023-05-07T12:09:26;7.80;99.90
37158;DHT22;23050;51.776;22.638;2023-05-07T12:11:52;7.80;99.90
37158;DHT22;23050;51.776;22.638;2023-05-07T12:14:17;7.80;99.90
37158;DHT22;23050;51.776;22.638;2023-05-07T12:16:43;7.90;99.90
37158;DHT22;23050;51.776;22.638;2023-05-07T12:19:08;8.10;99.90
37158;DHT22;23050;51.776;22.638;2023-05-07T12:21:37;8.10;99.90
37158;DHT22;23050;51.776;22.638;2023-05-07T12:24:03;8.20;99.90
37158;DHT22;23050;51.776;22.638;2023-05-07T12:26:29;8.30;99.90
37158;DHT22;23050;51.776;22.638;2023-05-07T12:28:54;8.40;99.90
37158;DHT22;23050;51.776;22.638;2023-05-07T12:31:20;8.60;99.90
37158;DHT22;23050;51.776;22.638;2023-05-07T12:33:45;8.50;99.90
37158;DHT22;23050;51.776;22.638;2023-05-07T12:36:12;8.60;99.90
37158;DHT22;23050;51.776;22.638;2023-05-07T12:38:38;8.60;99.90
37158;DHT22;23050;51.776;22.638;2023-05-07T12:41:04;8.40;99.90
37158;DHT22;23050;51.776;22.638;2023-05-07T12:43:29;8.40;99.90
37158;DHT22;23050;51.776;22.638;2023-05-07T12:45:55;8.50;99.90
37158;DHT22;23050;51.776;22.638;2023-05-07T12:48:22;8.60;99.90
37158;DHT22;23050;51.776;22.638;2023-05-07T12:50:50;8.60;99.90
37158;DHT22;23050;51.776;22.638;2023-05-07T12:53:16;8.60;99.90
37158;DHT22;23050;51.776;22.638;2023-05-07T12:55:45;8.40;99.90
37158;DHT22;23050;51.776;22.638;2023-05-07T12:58:18;8.40;99.90
37158;DHT22;23050;51.776;22.638;2023-05-07T13:00:44;8.40;99.90
37158;DHT22;23050;51.776;22.638;2023-05-07T13:03:10;8.40;99.90
37158;DHT22;23050;51.776;22.638;2023-05-07T13:05:36;8.40;99.90
37158;DHT22;23050;51.776;22.638;2023-05-07T13:08:01;8.60;99.90
37158;DHT22;23050;51.776;22.638;2023-05-07T13:10:27;8.70;99.90
37158;DHT22;23050;51.776;22.638;2023-05-07T13:12:52;8.70;99.90
37158;DHT22;23050;51.776;22.638;2023-05-07T13:15:18;8.70;99.90
37158;DHT22;23050;51.776;22.638;2023-05-07T13:17:43;8.60;99.90
37158;DHT22;23050;51.776;22.638;2023-05-07T13:20:09;8.70;99.90
37158;DHT22;23050;51.776;22.638;2023-05-07T13:22:35;8.60;99.90
37158;DHT22;23050;51.776;22.638;2023-05-07T13:25:01;8.60;99.90
37158;DHT22;23050;51.776;22.638;2023-05-07T13:27:26;8.50;99.90
37158;DHT22;23050;51.776;22.638;2023-05-07T13:29:52;8.50;99.90
37158;DHT22;23050;51.776;22.638;2023-05-07T13:32:17;8.40;99.90
37158;DHT22;23050;51.776;22.638;2023-05-07T13:34:43;8.30;99.90
37158;DHT22;23050;51.776;22.638;2023-05-07T13:37:08;8.30;99.90
37158;DHT22;23050;51.776;22.638;2023-05-07T13:39:34;8.30;99.90
37158;DHT22;23050;51.776;22.638;2023-05-07T13:41:59;8.30;99.90
37158;DHT22;23050;51.776;22.638;2023-05-07T13:44:26;8.50;99.90
37158;DHT22;23050;51.776;22.638;2023-05-07T13:46:51;8.80;99.90
37158;DHT22;23050;51.776;22.638;2023-05-07T13:49:17;9.10;99.90
37158;DHT22;23050;51.776;22.638;2023-05-07T13:51:45;9.30;99.90
37158;DHT22;23050;51.776;22.638;2023-05-07T13:54:10;9.30;95.80
37158;DHT22;23050;51.776;22.638;2023-05-07T13:56:36;9.50;96.00
37158;DHT22;23050;51.776;22.638;2023-05-07T13:59:01;9.70;94.40
37158;DHT22;23050;51.776;22.638;2023-05-07T14:01:27;9.70;91.10
37158;DHT22;23050;51.776;22.638;2023-05-07T14:03:52;9.50;91.40
37158;DHT22;23050;51.776;22.638;2023-05-07T14:06:18;9.40;93.60
37158;DHT22;23050;51.776;22.638;2023-05-07T14:08:43;9.10;95.70
37158;DHT22;23050;51.776;22.638;2023-05-07T14:11:09;8.90;96.90
37158;DHT22;23050;51.776;22.638;2023-05-07T14:13:34;8.60;98.00
37158;DHT22;23050;51.776;22.638;2023-05-07T14:16:00;8.60;98.90
37158;DHT22;23050;51.776;22.638;2023-05-07T14:18:26;8.50;99.90
37158;DHT22;23050;51.776;22.638;2023-05-07T14:20:51;8.50;99.90
37158;DHT22;23050;51.776;22.638;2023-05-07T14:23:16;8.50;99.90
37158;DHT22;23050;51.776;22.638;2023-05-07T14:25:44;8.70;99.90
37158;DHT22;23050;51.776;22.638;2023-05-07T14:28:11;8.90;99.90
37158;DHT22;23050;51.776;22.638;2023-05-07T14:30:36;8.90;98.70
37158;DHT22;23050;51.776;22.638;2023-05-07T14:33:02;8.90;98.90
37158;DHT22;23050;51.776;22.638;2023-05-07T14:35:27;8.90;98.70
37158;DHT22;23050;51.776;22.638;2023-05-07T14:37:53;8.90;98.10
37158;DHT22;23050;51.776;22.638;2023-05-07T14:40:18;8.70;96.70
37158;DHT22;23050;51.776;22.638;2023-05-07T14:42:44;9.00;96.10
37158;DHT22;23050;51.776;22.638;2023-05-07T14:45:09;9.70;97.00
37158;DHT22;23050;51.776;22.638;2023-05-07T14:47:35;10.50;89.00
37158;DHT22;23050;51.776;22.638;2023-05-07T14:50:00;11.00;72.00
37158;DHT22;23050;51.776;22.638;2023-05-07T14:52:26;11.50;65.10
37158;DHT22;23050;51.776;22.638;2023-05-07T14:54:51;11.80;46.70
37158;DHT22;23050;51.776;22.638;2023-05-07T14:57:17;11.90;19.70
37158;DHT22;23050;51.776;22.638;2023-05-07T14:59:43;11.30;1.00
37158;DHT22;23050;51.776;22.638;2023-05-07T15:02:10;10.70;31.60
37158;DHT22;23050;51.776;22.638;2023-05-07T15:04:35;10.20;27.70
37158;DHT22;23050;51.776;22.638;2023-05-07T15:07:01;10.20;49.70
37158;DHT22;23050;51.776;22.638;2023-05-07T15:09:26;10.10;53.80
37158;DHT22;23050;51.776;22.638;2023-05-07T15:11:52;10.30;43.80
37158;DHT22;23050;51.776;22.638;2023-05-07T15:14:17;10.10;61.60
37158;DHT22;23050;51.776;22.638;2023-05-07T15:16:43;10.10;67.10
37158;DHT22;23050;51.776;22.638;2023-05-07T15:19:08;9.70;60.20
37158;DHT22;23050;51.776;22.638;2023-05-07T15:21:34;9.70;67.80
37158;DHT22;23050;51.776;22.638;2023-05-07T15:24:01;9.70;70.60
37158;DHT22;23050;51.776;22.638;2023-05-07T15:26:26;9.80;70.60
37158;DHT22;23050;51.776;22.638;2023-05-07T15:28:52;9.90;69.00
37158;DHT22;23050;51.776;22.638;2023-05-07T15:31:17;10.10;60.50
37158;DHT22;23050;51.776;22.638;2023-05-07T15:33:43;10.40;51.10
37158;DHT22;23050;51.776;22.638;2023-05-07T15:36:09;10.20;49.30